UGKO/KIU METAR and TAF weather

Enter ICAO airport designator
Station Type Date Time Source
UGKO METAR 2019/04/22 18:00 UTC NOAA

UGKO 221800Z 26008KT 9999 -RA SCT027 OVC042 09/08 Q1021 R25/2///55 NOSIG


Station Type Date Time Source
UGKO Decoded METAR 2019/04/22 18:00 UTC NOAA

Station name not available
Apr 22, 2019 - 02:00 PM EDT / 2019.04.22 1800 UTC
Wind: from the W (260 degrees) at 9 MPH (8 KT):0
Visibility: greater than 7 mile(s):0
Sky conditions: overcast
Weather: light rain
Temperature: 48 F (9 C)
Dew Point: 46 F (8 C)
Relative Humidity: 93%
Pressure (altimeter): 30.15 in. Hg (1021 hPa)
ob: UGKO 221800Z 26008KT 9999 -RA SCT027 OVC042 09/08 Q1021 R25/2///55 NOSIG
cycle: 18

Station Type Date Time Source
UGKO TAF 2019/04/22 18:20 UTC NOAA

TAF COR UGKO 221700Z 2218/2318 26005KT 9999 SCT023 OVC045 TX12/2312Z TN08/2302Z
TEMPO 2218/2221 26017KT
TEMPO 2221/2302 VRB02KT 5000 RA BR BKN017
TEMPO 2300/2311 3000 RA BR BKN007 OVC030
TEMPO 2312/2316 26016KT

Example: see airport list